Main page
METAR-TAF:

METAR-TAF

Airports :

Abha Regional Airport

Abha, Saudi Arabia

latitude: 18-14N, longitude: 042-39E, elevation: 2090 m

Current weather observation

The report was made 31 minutes ago, at 05:00 UTC
Wind 10 kt from the North/Northwest
Temperature 18°C
Humidity 39%
Pressure 1027 hPa
Visibility: 0800 m
Clear sky
widespread dust

METAR: OEAB 240500Z 33010KT 0800 DU SKC 18/04 Q1027 NOSIG

Time: 08:31 (05:31 UTC)

Forecast

The report was made 6 hours and 31 minutes ago, at 23:00 UTC
Forecast valid from 24 at 00 UTC to 25 at 06 UTC
Wind 8 kt from the North
Visibility: 2500 m
Scattered clouds at a height of 2000 ft
widespread dust
Temporary
from 24 at 08 UTC to 24 at 17 UTC
Wind 15 kt from the South/Southwest
Visibility: 5000 m
Broken clouds at a height of 2000 ft
Few clouds at a height of 2500 ft, Cumulonimbus.
Blowing dust, thunderstorm, rain

TAF: OEAB 232300Z 2400/2506 35008KT 2500 DU SCT020 TEMPO 2408/2417 20015KT 5000 BLDU TSRA BKN020 FEW025CB

Weather observations and forecasts of more than 4000 airports (METAR and TAF reports).

The available stations are represented by yellow and red dots on the map.

Hover mouse over dot to see the name of the station.

Then click to see weather observations and forecasts.

To change the map : click on the green buttons with a black cross to zoom in, on the green button with a dash to zoom out, or on the green arrows for adjacent maps.


METAR-TAF: